Terminal Aerodrome Forecast
Issued by NWS

Current Version | Previous Version | Text Only | Print | Product List | Glossary On
Versions: 1 2 3 4 5 6 7 8 9 10 11 12 13 14 15 16 17 18 19 20 21 22 23 24 25 26 27 28 29
000
FTUS44 KTSA 200500
TAFBVO
TAF
KBVO 200537Z 2006/2106 00000KT P6SM SCT012 BKN025
     FM201000 00000KT P6SM OVC018
     FM201600 20007KT P6SM BKN018
     FM202000 19006KT P6SM BKN025
     FM210200 18003KT P6SM BKN015=

USA.gov is the U.S. government's official web portal to all federal, state and local government web resources and services.